createdAt,value
2024-02-08T00:01:16.821Z,2.10
2024-02-08T00:03:44.068Z,2.67
2024-02-08T00:06:11.581Z,2.30
2024-02-08T00:08:38.359Z,2.50
2024-02-08T00:11:07.379Z,2.00
2024-02-08T00:13:35.363Z,2.13
2024-02-08T00:16:02.754Z,2.03
2024-02-08T00:18:29.749Z,2.23
2024-02-08T00:20:56.606Z,2.07
2024-02-08T00:23:23.459Z,2.40
2024-02-08T00:25:51.430Z,2.17
2024-02-08T00:28:18.410Z,2.00
2024-02-08T00:30:46.526Z,1.80
2024-02-08T00:33:13.463Z,2.00
2024-02-08T00:35:40.405Z,2.20
2024-02-08T00:38:07.383Z,2.07
2024-02-08T00:40:34.213Z,1.90
2024-02-08T00:43:07.024Z,2.10
2024-02-08T00:45:34.718Z,1.93
2024-02-08T00:48:02.233Z,2.00
2024-02-08T00:50:29.144Z,1.53
2024-02-08T00:52:56.016Z,1.50
2024-02-08T00:55:23.339Z,1.40
2024-02-08T00:57:50.459Z,1.30
2024-02-08T01:00:18.819Z,1.90
2024-02-08T01:02:45.700Z,1.20
2024-02-08T01:05:12.561Z,1.13
2024-02-08T01:07:39.679Z,1.27
2024-02-08T01:10:08.355Z,1.20
2024-02-08T01:12:35.464Z,1.00
2024-02-08T01:15:03.529Z,1.50
2024-02-08T01:17:30.408Z,1.30
2024-02-08T01:20:01.835Z,1.23
2024-02-08T01:22:28.806Z,1.30
2024-02-08T01:24:56.307Z,1.20
2024-02-08T01:27:24.264Z,1.33
2024-02-08T01:29:52.152Z,1.03
2024-02-08T01:32:21.665Z,1.20
2024-02-08T01:34:50.856Z,1.40
2024-02-08T01:37:18.668Z,1.00
2024-02-08T01:39:45.589Z,1.10
2024-02-08T01:42:16.272Z,1.53
2024-02-08T01:44:48.371Z,0.90
2024-02-08T01:47:19.028Z,1.27
2024-02-08T01:49:48.513Z,1.30
2024-02-08T01:52:20.075Z,1.47
2024-02-08T01:54:50.322Z,1.40
2024-02-08T01:57:17.408Z,1.30
2024-02-08T01:59:53.916Z,1.13
2024-02-08T02:02:23.270Z,1.10
2024-02-08T02:04:50.325Z,1.17
2024-02-08T02:07:17.210Z,1.63
2024-02-08T02:09:44.221Z,1.33
2024-02-08T02:12:17.736Z,1.50
2024-02-08T02:14:46.104Z,1.00
2024-02-08T02:17:17.592Z,1.10
2024-02-08T02:19:44.787Z,1.10
2024-02-08T02:22:14.258Z,1.03
2024-02-08T02:24:42.147Z,1.20
2024-02-08T02:27:11.376Z,1.00
2024-02-08T02:29:39.505Z,1.07
2024-02-08T02:32:32.103Z,1.20
2024-02-08T02:34:59.230Z,1.10
2024-02-08T02:37:26.159Z,0.97
2024-02-08T02:39:54.076Z,1.03
2024-02-08T02:42:20.911Z,1.10
2024-02-08T02:44:47.702Z,0.97
2024-02-08T02:47:15.012Z,1.00
2024-02-08T02:49:42.611Z,0.90
2024-02-08T02:52:09.871Z,0.90
2024-02-08T02:54:37.104Z,0.80
2024-02-08T02:57:04.507Z,0.90
2024-02-08T02:59:31.795Z,0.90
2024-02-08T03:01:58.977Z,1.00
2024-02-08T03:04:29.210Z,0.90
2024-02-08T03:06:56.300Z,0.90
2024-02-08T03:09:28.415Z,0.57
2024-02-08T03:11:58.674Z,0.80
2024-02-08T03:14:26.855Z,0.60
2024-02-08T03:16:57.718Z,1.00
2024-02-08T03:19:24.926Z,0.70
2024-02-08T03:21:51.906Z,0.70
2024-02-08T03:24:20.789Z,1.07
2024-02-08T03:26:50.486Z,0.90
2024-02-08T03:29:18.606Z,0.80
2024-02-08T03:31:47.467Z,0.80
2024-02-08T03:34:25.236Z,0.97
2024-02-08T03:36:52.520Z,1.17
2024-02-08T03:39:28.907Z,1.17
2024-02-08T03:41:59.892Z,1.10
2024-02-08T03:44:31.082Z,0.93
2024-02-08T03:47:25.630Z,0.77
2024-02-08T03:49:53.425Z,0.90
2024-02-08T03:52:21.079Z,1.00
2024-02-08T03:54:48.516Z,1.00
2024-02-08T03:57:15.378Z,1.03
2024-02-08T03:59:43.415Z,1.00
2024-02-08T04:02:10.898Z,0.80
2024-02-08T04:05:06.721Z,1.00
2024-02-08T04:07:52.659Z,0.90
2024-02-08T04:10:20.954Z,0.77
2024-02-08T04:13:06.785Z,0.90
2024-02-08T04:15:52.019Z,0.60
2024-02-08T04:18:37.468Z,0.80
2024-02-08T04:21:22.817Z,0.90
2024-02-08T04:24:08.165Z,0.80
2024-02-08T04:26:53.699Z,0.97
2024-02-08T04:29:39.262Z,0.97
2024-02-08T04:32:25.155Z,0.77
2024-02-08T04:35:10.634Z,0.60
2024-02-08T04:37:55.996Z,0.80
2024-02-08T04:40:41.550Z,0.80
2024-02-08T04:43:27.280Z,1.93
2024-02-08T04:46:12.846Z,0.50
2024-02-08T04:48:58.106Z,0.50
2024-02-08T04:51:43.647Z,0.50
2024-02-08T04:54:11.143Z,0.60
2024-02-08T04:56:38.190Z,0.67
2024-02-08T04:59:20.979Z,0.60
2024-02-08T05:01:50.689Z,0.70
2024-02-08T05:04:20.192Z,0.70
2024-02-08T05:06:47.997Z,1.00
2024-02-08T05:09:20.976Z,0.70
2024-02-08T05:11:50.228Z,0.70
2024-02-08T05:14:20.542Z,0.70
2024-02-08T05:16:47.665Z,0.60
2024-02-08T05:19:15.666Z,0.70
2024-02-08T05:21:43.411Z,0.77
2024-02-08T05:24:14.711Z,0.80
2024-02-08T05:26:42.571Z,0.90
2024-02-08T05:29:09.571Z,0.70
2024-02-08T05:31:42.878Z,0.97
2024-02-08T05:34:17.009Z,1.20
2024-02-08T05:36:46.328Z,0.90
2024-02-08T05:39:13.909Z,1.03
2024-02-08T05:41:45.839Z,0.80
2024-02-08T05:44:13.822Z,0.90
2024-02-08T05:46:40.958Z,0.90
2024-02-08T05:49:16.153Z,1.07
2024-02-08T05:51:53.093Z,1.20
2024-02-08T05:54:32.857Z,1.10
2024-02-08T05:57:04.645Z,1.37
2024-02-08T05:59:32.784Z,0.87
2024-02-08T06:02:01.161Z,1.03
2024-02-08T06:04:36.434Z,1.40
2024-02-08T06:07:06.938Z,1.00
2024-02-08T06:09:47.573Z,1.00
2024-02-08T06:12:29.439Z,1.00
2024-02-08T06:14:59.844Z,0.87
2024-02-08T06:17:33.995Z,0.70
2024-02-08T06:20:01.795Z,0.90
2024-02-08T06:22:30.488Z,1.00
2024-02-08T06:25:09.912Z,0.70
2024-02-08T06:27:38.476Z,1.30
2024-02-08T06:30:10.527Z,0.90
2024-02-08T06:32:47.247Z,0.90
2024-02-08T06:35:20.949Z,1.47
2024-02-08T06:38:01.301Z,1.20
2024-02-08T06:40:46.824Z,0.97
2024-02-08T06:43:26.666Z,1.03
2024-02-08T06:45:57.283Z,1.00
2024-02-08T06:48:50.485Z,1.10
2024-02-08T06:51:36.402Z,0.90
2024-02-08T06:54:12.304Z,0.90
2024-02-08T06:56:58.323Z,1.30
2024-02-08T06:59:44.020Z,1.13
2024-02-08T07:02:29.632Z,1.03
2024-02-08T07:05:15.107Z,1.13
2024-02-08T07:08:01.013Z,0.97
2024-02-08T07:10:47.158Z,1.10
2024-02-08T07:13:32.815Z,1.20
2024-02-08T07:16:18.313Z,1.20
2024-02-08T07:19:07.387Z,1.20
2024-02-08T07:21:55.496Z,1.13
2024-02-08T07:24:41.340Z,1.13
2024-02-08T07:27:26.840Z,1.30
2024-02-08T07:30:12.406Z,1.50
2024-02-08T07:32:58.035Z,1.27
2024-02-08T07:35:43.510Z,1.20
2024-02-08T07:38:10.783Z,1.83
2024-02-08T07:40:38.219Z,1.60
2024-02-08T07:43:21.567Z,1.37
2024-02-08T07:45:50.027Z,1.27
2024-02-08T07:48:36.215Z,1.47
2024-02-08T07:51:04.259Z,1.40
2024-02-08T07:53:46.453Z,1.00
2024-02-08T07:56:39.741Z,0.90
2024-02-08T07:59:07.988Z,1.00
2024-02-08T08:01:40.539Z,1.07
2024-02-08T08:04:13.692Z,0.90
2024-02-08T08:06:50.385Z,1.33
2024-02-08T08:09:22.048Z,1.00
2024-02-08T08:11:49.959Z,1.10
2024-02-08T08:14:35.431Z,1.20
2024-02-08T08:17:31.457Z,1.60
2024-02-08T08:20:05.886Z,1.40
2024-02-08T08:22:33.327Z,1.13
2024-02-08T08:25:12.832Z,1.00
2024-02-08T08:28:11.339Z,1.00
2024-02-08T08:30:39.998Z,0.90
2024-02-08T08:33:07.623Z,0.93
2024-02-08T08:35:34.771Z,0.80
2024-02-08T08:38:29.668Z,1.10
2024-02-08T08:41:08.228Z,0.90
2024-02-08T08:43:38.755Z,0.83
2024-02-08T08:46:11.954Z,0.87
2024-02-08T08:48:40.073Z,0.80
2024-02-08T08:51:13.614Z,0.77
2024-02-08T08:53:57.910Z,0.80
2024-02-08T08:56:29.364Z,0.83
2024-02-08T08:58:59.921Z,0.97
2024-02-08T09:01:26.901Z,1.20
2024-02-08T09:04:11.912Z,0.90
2024-02-08T09:06:42.888Z,1.03
2024-02-08T09:09:28.863Z,1.30
2024-02-08T09:12:01.807Z,2.00
2024-02-08T09:14:31.483Z,1.97
2024-02-08T09:16:59.094Z,1.60
2024-02-08T09:19:29.121Z,1.47
2024-02-08T09:22:00.261Z,0.70
2024-02-08T09:24:28.437Z,0.93
2024-02-08T09:27:16.627Z,1.07
2024-02-08T09:29:44.563Z,1.20
2024-02-08T09:32:40.788Z,0.60
2024-02-08T09:35:13.342Z,0.90
2024-02-08T09:37:48.401Z,0.83
2024-02-08T09:40:31.578Z,0.70
2024-02-08T09:42:59.252Z,0.60
2024-02-08T09:45:35.083Z,0.50
2024-02-08T09:48:07.678Z,0.60
2024-02-08T09:50:40.749Z,0.50
2024-02-08T09:53:28.325Z,0.63
2024-02-08T09:55:57.466Z,0.40
2024-02-08T09:58:42.955Z,0.60
2024-02-08T10:01:24.201Z,0.50
2024-02-08T10:04:05.409Z,0.40
2024-02-08T10:06:55.531Z,0.30
2024-02-08T10:09:35.364Z,0.50
2024-02-08T10:12:09.588Z,0.60
2024-02-08T10:14:37.107Z,0.37
2024-02-08T10:17:17.076Z,0.50
2024-02-08T10:20:18.743Z,0.50
2024-02-08T10:23:10.175Z,0.43
2024-02-08T10:25:55.941Z,0.50
2024-02-08T10:28:25.035Z,0.53
2024-02-08T10:31:08.852Z,0.40
2024-02-08T10:33:40.264Z,0.40
2024-02-08T10:36:22.158Z,0.70
2024-02-08T10:38:58.717Z,0.57
2024-02-08T10:41:58.672Z,0.70
2024-02-08T10:44:33.983Z,0.70
2024-02-08T10:47:15.388Z,0.70
2024-02-08T10:49:46.772Z,0.67
2024-02-08T10:52:17.731Z,0.90
2024-02-08T10:54:55.354Z,1.10
2024-02-08T10:57:41.056Z,1.10
2024-02-08T11:00:30.017Z,1.30
2024-02-08T11:03:15.716Z,1.00
2024-02-08T11:05:50.650Z,1.10
2024-02-08T11:08:26.087Z,0.93
2024-02-08T11:11:00.803Z,1.47
2024-02-08T11:13:38.046Z,1.00
2024-02-08T11:16:23.426Z,1.17
2024-02-08T11:18:54.454Z,1.17
2024-02-08T11:21:47.001Z,1.20
2024-02-08T11:24:30.370Z,1.57
2024-02-08T11:27:02.823Z,1.30
2024-02-08T11:29:30.937Z,1.13
2024-02-08T11:31:58.303Z,1.60
2024-02-08T11:34:35.597Z,1.17
2024-02-08T11:37:19.092Z,1.07
2024-02-08T11:39:49.181Z,1.23
2024-02-08T11:42:20.311Z,0.90
2024-02-08T11:44:47.458Z,0.80
2024-02-08T11:47:19.395Z,1.00
2024-02-08T11:50:02.954Z,0.80
2024-02-08T11:52:32.152Z,0.60
2024-02-08T11:55:16.656Z,0.80
2024-02-08T11:57:44.232Z,0.70
2024-02-08T12:00:18.769Z,0.80
2024-02-08T12:02:59.648Z,0.80
2024-02-08T12:05:29.147Z,0.70
2024-02-08T12:08:10.599Z,0.80
2024-02-08T12:10:39.295Z,0.80
2024-02-08T12:13:06.536Z,0.70
2024-02-08T12:15:36.148Z,0.47
2024-02-08T12:18:06.935Z,0.60
2024-02-08T12:20:37.353Z,0.80
2024-02-08T12:23:05.062Z,0.73
2024-02-08T12:25:32.191Z,1.27
2024-02-08T12:28:10.495Z,0.90
2024-02-08T12:30:40.812Z,0.90
2024-02-08T12:33:10.261Z,0.90
2024-02-08T12:35:42.225Z,0.87
2024-02-08T12:38:12.827Z,1.20
2024-02-08T12:40:40.948Z,1.20
2024-02-08T12:43:09.639Z,1.13
2024-02-08T12:45:39.174Z,1.70
2024-02-08T12:48:09.172Z,1.47
2024-02-08T12:50:39.157Z,1.50
2024-02-08T12:53:14.024Z,1.80
2024-02-08T12:55:41.634Z,1.57
2024-02-08T12:58:14.646Z,2.20
2024-02-08T13:00:46.307Z,2.63
2024-02-08T13:03:16.440Z,1.80
2024-02-08T13:05:45.432Z,3.00
2024-02-08T13:08:22.794Z,2.93
2024-02-08T13:10:57.706Z,2.80
2024-02-08T13:13:25.102Z,2.27
2024-02-08T13:16:00.216Z,2.67
2024-02-08T13:18:30.976Z,3.30
2024-02-08T13:21:04.957Z,2.97
2024-02-08T13:23:32.396Z,2.00
2024-02-08T13:26:01.090Z,2.37
2024-02-08T13:28:28.545Z,2.63
2024-02-08T13:30:57.184Z,2.87
2024-02-08T13:33:24.878Z,2.80
2024-02-08T13:35:54.209Z,2.60
2024-02-08T13:38:24.580Z,3.67
2024-02-08T13:41:00.417Z,2.43
2024-02-08T13:43:31.907Z,2.73
2024-02-08T13:46:02.102Z,3.70
2024-02-08T13:48:30.871Z,2.93
2024-02-08T13:50:59.264Z,3.00
2024-02-08T13:53:29.435Z,2.80
2024-02-08T13:55:56.845Z,2.93
2024-02-08T13:58:27.707Z,3.60
2024-02-08T14:00:59.169Z,2.60
2024-02-08T14:03:30.568Z,2.63
2024-02-08T14:06:00.792Z,2.97
2024-02-08T14:08:29.610Z,3.37
2024-02-08T14:10:59.753Z,3.77
2024-02-08T14:13:30.899Z,3.17
2024-02-08T14:16:01.935Z,3.37
2024-02-08T14:18:34.291Z,3.73
2024-02-08T14:21:03.409Z,2.70
2024-02-08T14:23:31.835Z,3.13
2024-02-08T14:26:09.160Z,2.90
2024-02-08T14:28:40.982Z,3.63
2024-02-08T14:31:10.158Z,3.10
2024-02-08T14:33:37.780Z,3.70
2024-02-08T14:36:09.482Z,3.70
2024-02-08T14:38:46.607Z,2.70
2024-02-08T14:41:32.345Z,3.57
2024-02-08T14:44:07.058Z,3.70
2024-02-08T14:46:35.608Z,3.70
2024-02-08T14:49:18.236Z,3.80
2024-02-08T14:51:49.604Z,3.43
2024-02-08T14:54:27.080Z,4.07
2024-02-08T14:57:06.986Z,3.20
2024-02-08T14:59:50.254Z,3.40
2024-02-08T15:02:20.637Z,3.40
2024-02-08T15:04:55.004Z,3.33
2024-02-08T15:07:49.029Z,4.23
2024-02-08T15:10:21.863Z,3.53
2024-02-08T15:12:54.123Z,3.00
2024-02-08T15:15:30.923Z,4.00
2024-02-08T15:18:15.034Z,4.40
2024-02-08T15:20:47.899Z,3.20
2024-02-08T15:23:34.842Z,3.97
2024-02-08T15:26:13.915Z,4.20
2024-02-08T15:28:46.663Z,3.93
2024-02-08T15:31:16.374Z,4.00
2024-02-08T15:34:04.002Z,4.17
2024-02-08T15:36:36.075Z,4.33
2024-02-08T15:39:23.002Z,4.00
2024-02-08T15:41:53.476Z,4.50
2024-02-08T15:44:35.151Z,4.50
2024-02-08T15:47:05.716Z,4.23
2024-02-08T15:49:32.739Z,4.20
2024-02-08T15:51:59.927Z,3.33
2024-02-08T15:54:38.261Z,3.60
2024-02-08T15:57:13.970Z,3.50
2024-02-08T15:59:47.311Z,3.67
2024-02-08T16:02:19.681Z,3.90
2024-02-08T16:04:52.251Z,3.80
2024-02-08T16:07:28.555Z,4.27
2024-02-08T16:09:59.612Z,4.27
2024-02-08T16:12:32.505Z,3.90
2024-02-08T16:15:06.192Z,4.20
2024-02-08T16:17:36.464Z,4.43
2024-02-08T16:20:17.189Z,3.20
2024-02-08T16:23:03.907Z,3.13
2024-02-08T16:25:46.306Z,3.40
2024-02-08T16:28:18.388Z,4.00
2024-02-08T16:31:07.560Z,4.60
2024-02-08T16:33:42.632Z,3.97
2024-02-08T16:36:27.325Z,3.80
2024-02-08T16:39:07.321Z,4.27
2024-02-08T16:41:35.544Z,3.87
2024-02-08T16:44:05.360Z,4.07
2024-02-08T16:46:36.814Z,3.83
2024-02-08T16:49:06.229Z,3.93
2024-02-08T16:52:00.965Z,4.07
2024-02-08T16:54:27.813Z,3.33
2024-02-08T16:56:57.431Z,4.23
2024-02-08T16:59:30.075Z,4.23
2024-02-08T17:02:27.876Z,3.83
2024-02-08T17:05:17.752Z,3.73
2024-02-08T17:07:45.083Z,3.93
2024-02-08T17:10:23.664Z,3.50
2024-02-08T17:13:11.204Z,4.27
2024-02-08T17:16:01.685Z,3.87
2024-02-08T17:18:38.024Z,4.67
2024-02-08T17:21:37.133Z,5.00
2024-02-08T17:24:09.337Z,4.03
2024-02-08T17:26:36.914Z,4.63
2024-02-08T17:29:21.322Z,4.27
2024-02-08T17:31:49.307Z,4.00
2024-02-08T17:34:22.665Z,5.20
2024-02-08T17:36:55.100Z,4.10
2024-02-08T17:39:28.822Z,4.50
2024-02-08T17:41:58.250Z,5.10
2024-02-08T17:44:31.217Z,4.00
2024-02-08T17:47:01.335Z,4.10
2024-02-08T17:49:31.479Z,4.30
2024-02-08T17:52:01.078Z,5.30
2024-02-08T17:54:32.987Z,4.83
2024-02-08T17:57:03.807Z,4.23
2024-02-08T17:59:31.321Z,4.33
2024-02-08T18:02:05.925Z,4.47
2024-02-08T18:04:37.175Z,4.47
2024-02-08T18:07:10.293Z,5.13
2024-02-08T18:09:45.555Z,6.17
2024-02-08T18:12:34.903Z,5.83
2024-02-08T18:15:25.057Z,5.03
2024-02-08T18:17:56.976Z,5.03
2024-02-08T18:20:24.474Z,5.40
2024-02-08T18:22:51.293Z,4.73
2024-02-08T18:25:31.379Z,4.67
2024-02-08T18:28:00.482Z,4.47
2024-02-08T18:30:31.348Z,4.30
2024-02-08T18:33:06.183Z,5.73
2024-02-08T18:35:34.602Z,5.13
2024-02-08T18:38:06.093Z,5.40
2024-02-08T18:40:37.669Z,5.20
2024-02-08T18:43:05.453Z,5.13
2024-02-08T18:45:37.750Z,5.53
2024-02-08T18:48:05.516Z,6.13
2024-02-08T18:50:32.352Z,5.63
2024-02-08T18:53:06.282Z,5.37
2024-02-08T18:55:46.385Z,5.10
2024-02-08T18:58:14.658Z,5.33
2024-02-08T19:00:46.789Z,6.53
2024-02-08T19:03:20.892Z,6.47
2024-02-08T19:05:49.836Z,6.83
2024-02-08T19:08:21.369Z,7.37
2024-02-08T19:10:53.520Z,7.30
2024-02-08T19:13:28.990Z,6.87
2024-02-08T19:16:08.584Z,6.90
2024-02-08T19:18:45.660Z,7.40
2024-02-08T19:21:30.458Z,7.43
2024-02-08T19:24:05.474Z,7.50
2024-02-08T19:26:33.853Z,7.53
2024-02-08T19:29:01.449Z,6.87
2024-02-08T19:31:29.059Z,8.03
2024-02-08T19:34:08.538Z,6.50
2024-02-08T19:36:38.002Z,6.40
2024-02-08T19:39:24.137Z,7.00
2024-02-08T19:41:51.229Z,7.30
2024-02-08T19:44:25.420Z,6.40
2024-02-08T19:47:04.282Z,6.43
2024-02-08T19:49:40.492Z,6.13
2024-02-08T19:52:15.432Z,6.93
2024-02-08T19:54:43.004Z,6.10
2024-02-08T19:57:19.310Z,4.80
2024-02-08T19:59:49.888Z,5.27
2024-02-08T20:02:28.739Z,5.40
2024-02-08T20:05:00.910Z,5.33
2024-02-08T20:07:35.899Z,6.10
2024-02-08T20:10:03.262Z,5.97
2024-02-08T20:12:33.557Z,5.87
2024-02-08T20:15:00.493Z,6.90
2024-02-08T20:17:27.327Z,7.47
2024-02-08T20:19:54.305Z,6.37
2024-02-08T20:22:22.849Z,6.13
2024-02-08T20:24:49.806Z,5.50
2024-02-08T20:27:18.929Z,6.37
2024-02-08T20:29:46.676Z,6.30
2024-02-08T20:32:13.527Z,6.20
2024-02-08T20:34:41.128Z,9.57
2024-02-08T20:37:14.935Z,8.07
2024-02-08T20:39:48.206Z,8.47
2024-02-08T20:42:20.457Z,8.67
2024-02-08T20:44:47.654Z,8.43
2024-02-08T20:47:14.419Z,7.80
2024-02-08T20:49:43.211Z,7.60
2024-02-08T20:52:13.450Z,8.27
2024-02-08T20:54:45.528Z,8.03
2024-02-08T20:57:12.395Z,8.27
2024-02-08T20:59:41.410Z,8.33
2024-02-08T21:02:09.101Z,8.13
2024-02-08T21:04:36.935Z,7.20
2024-02-08T21:07:04.052Z,6.37
2024-02-08T21:09:32.501Z,5.30
2024-02-08T21:11:59.769Z,6.37
2024-02-08T21:14:27.881Z,5.97
2024-02-08T21:16:55.098Z,5.70
2024-02-08T21:19:22.496Z,5.00
2024-02-08T21:21:49.789Z,5.50
2024-02-08T21:24:16.726Z,5.20
2024-02-08T21:26:54.994Z,6.10
2024-02-08T21:29:26.481Z,6.77
2024-02-08T21:31:54.958Z,7.13
2024-02-08T21:34:22.894Z,6.90
2024-02-08T21:36:53.489Z,6.17
2024-02-08T21:39:20.909Z,6.13
2024-02-08T21:41:47.991Z,6.67
2024-02-08T21:44:15.788Z,7.10
2024-02-08T21:46:43.648Z,7.07
2024-02-08T21:49:11.294Z,6.90
2024-02-08T21:51:39.773Z,6.60
2024-02-08T21:54:06.864Z,7.27
2024-02-08T21:56:38.779Z,6.53
2024-02-08T21:59:08.173Z,6.03
2024-02-08T22:01:35.272Z,6.13
2024-02-08T22:04:04.786Z,6.23
2024-02-08T22:06:33.679Z,7.83
2024-02-08T22:09:10.120Z,5.90
2024-02-08T22:11:54.527Z,5.13
2024-02-08T22:14:24.957Z,5.00
2024-02-08T22:17:00.100Z,4.07
2024-02-08T22:19:34.533Z,4.97
2024-02-08T22:22:01.401Z,4.87
2024-02-08T22:24:28.154Z,4.23
2024-02-08T22:26:54.932Z,4.77
2024-02-08T22:29:22.383Z,4.53
2024-02-08T22:31:53.065Z,4.10
2024-02-08T22:34:23.058Z,4.60
2024-02-08T22:36:49.843Z,4.20
2024-02-08T22:39:16.760Z,5.33
2024-02-08T22:41:50.941Z,4.57
2024-02-08T22:44:18.444Z,4.47
2024-02-08T22:46:45.584Z,4.80
2024-02-08T22:49:15.530Z,4.07
2024-02-08T22:51:47.051Z,4.47
2024-02-08T22:54:14.268Z,4.30
2024-02-08T22:56:44.163Z,3.90
2024-02-08T22:59:11.251Z,3.97
2024-02-08T23:01:39.256Z,4.47
2024-02-08T23:04:08.435Z,3.80
2024-02-08T23:06:37.696Z,3.40
2024-02-08T23:09:08.546Z,4.30
2024-02-08T23:11:36.616Z,3.97
2024-02-08T23:14:04.238Z,3.97
2024-02-08T23:16:32.547Z,4.30
2024-02-08T23:19:02.893Z,5.03
2024-02-08T23:21:32.114Z,3.80
2024-02-08T23:24:08.806Z,4.73
2024-02-08T23:26:37.350Z,3.80
2024-02-08T23:29:04.968Z,4.37
2024-02-08T23:31:33.844Z,4.40
2024-02-08T23:34:04.633Z,4.77
2024-02-08T23:36:34.405Z,5.33
2024-02-08T23:39:03.035Z,4.47
2024-02-08T23:41:31.120Z,3.87
2024-02-08T23:43:58.090Z,4.23
2024-02-08T23:46:25.964Z,4.50
2024-02-08T23:48:59.011Z,4.17
2024-02-08T23:51:26.284Z,4.20
2024-02-08T23:53:55.125Z,4.07
2024-02-08T23:56:25.136Z,3.93
2024-02-08T23:58:52.705Z,3.73
